Time;durP1;ratioP1;P1;durP2;ratioP2;P2;SDS_P1;SDS_P2;PMS_P1;PMS_P2;Temp;Humidity;BMP_temperature;BMP_pressure;BME280_temperature;BME280_humidity;BME280_pressure;Samples;Min_cycle;Max_cycle;Signal;HPM_P1;HPM_P2
2021/07/26 00:01:34;;;;;;;8.77;7.97;;;;;;;19.47;72.92;100992.47;3590343;40;20222;-79
2021/07/26 00:04:00;;;;;;;10.27;9.20;;;;;;;19.50;73.10;100995.03;3583880;40;20682;-79
2021/07/26 00:06:25;;;;;;;13.03;11.83;;;;;;;19.51;73.17;101004.56;3585828;40;20278;-78
2021/07/26 00:08:51;;;;;;;12.70;11.50;;;;;;;19.48;73.37;101001.97;3572582;40;20225;-78
2021/07/26 00:11:16;;;;;;;10.20;9.20;;;;;;;19.50;73.28;100996.78;3573176;40;20218;-78
2021/07/26 00:13:41;;;;;;;13.50;12.10;;;;;;;19.43;73.25;101000.34;3581813;40;20237;-78
2021/07/26 00:16:07;;;;;;;14.90;13.50;;;;;;;19.36;73.77;100989.19;3572891;40;20558;-78
2021/07/26 00:18:33;;;;;;;14.37;13.03;;;;;;;19.64;73.42;100998.31;3587668;40;20225;-78
2021/07/26 00:21:00;;;;;;;11.17;10.07;;;;;;;19.49;73.33;100992.47;3581983;40;20284;-79
2021/07/26 00:23:26;;;;;;;10.80;9.80;;;;;;;19.43;73.05;100996.00;3582107;40;20492;-79
2021/07/26 00:25:51;;;;;;;12.27;11.10;;;;;;;19.34;73.45;100995.28;3581623;40;20582;-79
2021/07/26 00:28:16;;;;;;;13.27;12.07;;;;;;;19.30;73.41;100996.19;3581726;40;20230;-79
2021/07/26 00:30:42;;;;;;;13.50;12.10;;;;;;;19.35;73.48;100999.59;3581503;40;20226;-78
2021/07/26 00:34:19;;;;;;;13.77;12.47;;;;;;;19.31;73.74;100996.19;3584101;40;20547;-78
2021/07/26 00:36:45;;;;;;;7.70;7.00;;;;;;;19.26;73.88;100995.38;3581504;40;20218;-78
2021/07/26 00:39:12;;;;;;;9.20;8.40;;;;;;;19.29;73.97;100997.06;3581786;40;20228;-78
2021/07/26 00:41:38;;;;;;;10.30;9.23;;;;;;;19.29;74.15;100991.88;3581638;40;20229;-77
2021/07/26 00:44:04;;;;;;;8.23;7.43;;;;;;;19.26;73.69;100994.53;3581594;40;20241;-76
2021/07/26 00:46:30;;;;;;;8.03;7.23;;;;;;;19.21;73.63;100996.28;3580819;40;20249;-78
2021/07/26 00:48:56;;;;;;;8.67;7.87;;;;;;;19.17;73.84;101002.41;3580421;40;20627;-78
2021/07/26 00:51:22;;;;;;;11.50;10.50;;;;;;;19.11;73.92;100994.69;3591630;40;20225;-78
2021/07/26 00:53:47;;;;;;;11.80;10.80;;;;;;;19.10;74.11;101003.34;3591781;40;20252;-78
2021/07/26 00:56:14;;;;;;;8.83;8.03;;;;;;;19.12;74.25;100999.00;3591862;40;20228;-78
2021/07/26 00:58:40;;;;;;;10.10;9.20;;;;;;;19.10;73.95;100998.16;3591407;40;20531;-78
2021/07/26 01:01:05;;;;;;;15.97;13.23;;;;;;;19.04;74.31;100996.50;3590817;40;20221;-78
2021/07/26 01:03:30;;;;;;;15.43;13.93;;;;;;;18.99;74.51;101000.91;3581902;40;20245;-78
2021/07/26 01:05:57;;;;;;;10.77;9.77;;;;;;;18.98;74.28;101009.53;3591354;40;20217;-78
2021/07/26 01:08:22;;;;;;;15.37;13.80;;;;;;;19.18;74.46;101011.91;3590435;40;20233;-77
2021/07/26 01:10:47;;;;;;;13.70;12.40;;;;;;;19.25;74.38;101006.63;3591187;40;20306;-78
2021/07/26 01:13:13;;;;;;;14.00;12.70;;;;;;;19.14;74.70;101005.91;3590971;40;20623;-77
2021/07/26 01:15:38;;;;;;;16.30;14.70;;;;;;;19.13;74.92;101017.16;3589635;40;20228;-78
2021/07/26 01:18:25;;;;;;;14.60;13.20;;;;;;;19.35;74.77;101016.03;3581114;40;20229;-77
2021/07/26 01:20:59;;;;;;;18.50;16.07;;;;;;;19.61;74.39;101013.06;3581361;40;20232;-78
2021/07/26 01:23:26;;;;;;;17.47;15.73;;;;;;;19.75;74.02;101014.56;3580960;40;20252;-78
2021/07/26 01:25:52;;;;;;;14.27;12.90;;;;;;;19.68;73.95;101012.97;3585511;40;20534;-78
2021/07/26 01:28:19;;;;;;;15.07;13.67;;;;;;;19.57;74.38;101011.41;3580889;40;20512;-77
2021/07/26 01:30:46;;;;;;;16.50;15.00;;;;;;;19.63;74.09;101006.94;3590645;40;20559;-77
2021/07/26 01:33:13;;;;;;;15.43;13.97;;;;;;;19.65;74.24;101010.41;3585893;40;20241;-77
2021/07/26 01:35:39;;;;;;;16.20;14.47;;;;;;;19.56;73.80;101015.72;3575838;40;20234;-77
2021/07/26 01:38:05;;;;;;;14.53;13.17;;;;;;;19.43;74.56;101023.72;3580908;40;20264;-77
2021/07/26 01:40:34;;;;;;;11.03;10.03;;;;;;;19.37;74.82;101026.38;3575251;40;20225;-77
2021/07/26 01:43:02;;;;;;;16.27;14.57;;;;;;;19.28;74.70;101016.13;3591271;40;20642;-78
2021/07/26 01:45:27;;;;;;;16.30;14.57;;;;;;;19.24;75.07;101027.44;3592708;40;20225;-78
2021/07/26 01:47:59;;;;;;;16.57;14.97;;;;;;;19.27;75.24;101023.06;3584534;40;20676;-78
2021/07/26 01:50:28;;;;;;;11.17;10.07;;;;;;;19.21;75.23;101033.50;3570603;40;20222;-77
2021/07/26 01:52:53;;;;;;;13.73;12.43;;;;;;;19.13;75.13;101029.28;3583941;40;20253;-77
2021/07/26 01:55:18;;;;;;;13.80;12.50;;;;;;;19.07;75.01;101031.97;3586814;40;20371;-78
2021/07/26 01:57:43;;;;;;;13.43;12.20;;;;;;;19.01;75.07;101035.47;3583472;40;20229;-78
2021/07/26 02:00:09;;;;;;;11.07;9.97;;;;;;;18.98;75.39;101029.47;3590949;40;20217;-78
2021/07/26 02:02:34;;;;;;;13.67;12.37;;;;;;;18.97;74.86;101035.53;3580877;40;20217;-78
2021/07/26 02:05:00;;;;;;;10.93;9.93;;;;;;;18.96;75.19;101033.81;3590560;40;20225;-77
2021/07/26 02:07:25;;;;;;;13.43;12.23;;;;;;;18.90;75.10;101032.16;3590979;40;20243;-78
2021/07/26 02:09:50;;;;;;;13.40;12.13;;;;;;;18.86;74.99;101030.47;3590641;40;20236;-78
2021/07/26 02:12:16;;;;;;;14.57;13.10;;;;;;;18.79;75.03;101023.63;3591175;40;20642;-77
2021/07/26 02:14:42;;;;;;;14.73;13.43;;;;;;;18.73;75.18;101026.28;3590928;40;20532;-77
2021/07/26 02:17:07;;;;;;;16.50;15.00;;;;;;;18.70;75.44;101022.88;3583220;40;20244;-78
2021/07/26 02:19:32;;;;;;;16.67;15.07;;;;;;;18.68;75.35;101033.25;3590982;40;20230;-78
2021/07/26 02:21:58;;;;;;;19.60;17.67;;;;;;;18.68;76.20;101024.59;3590598;40;20225;-78
2021/07/26 02:24:23;;;;;;;19.33;17.53;;;;;;;18.65;75.48;101030.69;3590558;40;20600;-78
2021/07/26 02:26:48;;;;;;;13.97;12.67;;;;;;;18.64;75.54;101028.09;3582131;40;20226;-78
2021/07/26 02:29:13;;;;;;;17.30;15.60;;;;;;;18.86;74.95;101029.59;3571895;40;20225;-77
2021/07/26 02:31:39;;;;;;;14.67;13.20;;;;;;;18.79;75.14;101036.59;3581241;40;20437;-77
2021/07/26 02:34:04;;;;;;;16.60;15.00;;;;;;;18.71;75.04;101029.78;3591161;40;20233;-78
2021/07/26 02:36:29;;;;;;;18.27;16.57;;;;;;;18.64;75.77;101035.88;3589491;40;20234;-78
2021/07/26 02:38:54;;;;;;;18.07;16.37;;;;;;;18.60;75.19;101029.03;3580673;40;20229;-78
2021/07/26 02:41:20;;;;;;;14.67;13.30;;;;;;;18.59;75.16;101027.28;3581208;40;20222;-77
2021/07/26 02:43:45;;;;;;;15.70;14.20;;;;;;;18.57;75.32;101026.47;3572098;40;20730;-78
2021/07/26 02:46:10;;;;;;;14.67;13.33;;;;;;;18.55;75.29;101020.41;3590838;40;20233;-77
2021/07/26 02:48:37;;;;;;;16.90;15.30;;;;;;;18.50;75.60;101028.25;3590596;40;20229;-78
2021/07/26 02:51:03;;;;;;;20.37;18.27;;;;;;;18.49;75.55;101025.69;3581159;40;20322;-77
2021/07/26 02:53:29;;;;;;;17.03;15.37;;;;;;;18.44;75.45;101025.72;3571432;40;20593;-78
2021/07/26 02:55:54;;;;;;;14.20;12.73;;;;;;;18.41;75.26;101033.53;3571744;40;20225;-78
2021/07/26 02:58:22;;;;;;;15.17;13.83;;;;;;;18.37;75.52;101029.25;3580417;40;20279;-78
2021/07/26 03:00:48;;;;;;;15.47;14.03;;;;;;;18.34;75.38;101025.81;3579945;40;20233;-78
2021/07/26 03:03:13;;;;;;;16.60;15.00;;;;;;;18.32;75.57;101033.59;3590648;40;20647;-78
2021/07/26 03:05:38;;;;;;;15.20;13.80;;;;;;;18.30;75.70;101032.75;3581603;40;20244;-77
2021/07/26 03:08:04;;;;;;;12.63;11.43;;;;;;;18.37;75.69;101025.81;3590800;40;20599;-78
2021/07/26 03:10:29;;;;;;;19.17;17.37;;;;;;;19.03;74.02;101036.31;3584503;40;20245;-77
2021/07/26 03:12:55;;;;;;;19.33;17.53;;;;;;;19.01;73.92;101037.19;3595146;40;20334;-78
2021/07/26 03:15:21;;;;;;;18.40;16.53;;;;;;;18.64;74.95;101035.88;3594708;40;20622;-78
2021/07/26 03:17:47;;;;;;;16.33;14.80;;;;;;;18.42;75.21;101037.84;3590695;40;20241;-78
2021/07/26 03:20:13;;;;;;;11.67;10.53;;;;;;;18.31;75.45;101031.00;3584663;40;20511;-78
2021/07/26 03:22:51;;;;;;;11.90;10.73;;;;;;;18.38;75.52;101032.72;3590558;40;20233;-78
2021/07/26 03:25:17;;;;;;;20.37;18.33;;;;;;;18.60;76.56;101039.41;3585434;40;20296;-77
2021/07/26 03:27:43;;;;;;;20.33;18.43;;;;;;;18.36;76.49;101037.03;3588385;40;20611;-77
2021/07/26 03:30:09;;;;;;;20.63;18.73;;;;;;;18.28;76.54;101031.03;3584123;40;20232;-78
2021/07/26 03:32:35;;;;;;;16.20;14.67;;;;;;;18.27;76.62;101039.66;3586405;40;20240;-78
2021/07/26 03:35:00;;;;;;;16.47;14.73;;;;;;;18.23;76.55;101032.81;3588080;40;20232;-78
2021/07/26 03:37:25;;;;;;;12.70;11.47;;;;;;;18.24;76.46;101031.94;3585863;40;20236;-78
2021/07/26 03:39:50;;;;;;;19.40;17.60;;;;;;;18.20;76.49;101033.69;3577197;40;20245;-78
2021/07/26 03:42:16;;;;;;;10.20;9.20;;;;;;;18.19;76.32;101037.16;3585078;40;20229;-78
2021/07/26 03:44:41;;;;;;;13.87;12.63;;;;;;;18.18;76.50;101040.63;3584884;40;20251;-78
2021/07/26 03:47:06;;;;;;;20.13;18.13;;;;;;;18.33;76.83;101042.28;3585006;40;20221;-78
2021/07/26 03:49:31;;;;;;;19.50;17.40;;;;;;;18.27;76.42;101040.53;3587098;40;20519;-78
2021/07/26 03:51:57;;;;;;;16.67;15.10;;;;;;;18.23;76.71;101041.44;3591705;40;20487;-78
2021/07/26 03:54:22;;;;;;;17.00;15.40;;;;;;;18.21;76.61;101040.59;3585766;40;20237;-78
2021/07/26 03:56:47;;;;;;;22.80;20.50;;;;;;;18.19;77.19;101055.28;3580915;40;20326;-78
2021/07/26 03:59:13;;;;;;;21.07;19.07;;;;;;;18.26;77.07;101048.34;3582781;40;20222;-78
2021/07/26 04:01:38;;;;;;;18.67;16.93;;;;;;;18.36;76.68;101056.06;3585066;40;20241;-78
2021/07/26 04:04:04;;;;;;;15.77;14.23;;;;;;;18.42;77.16;101052.56;3586107;40;20225;-78
2021/07/26 04:06:29;;;;;;;17.33;15.63;;;;;;;18.47;76.88;101051.63;3581622;40;20229;-78
2021/07/26 04:08:55;;;;;;;17.60;16.00;;;;;;;18.49;76.80;101049.00;3578959;40;20210;-78
2021/07/26 04:13:50;;;;;;;14.00;12.70;;;;;;;18.54;76.48;101049.84;3583765;40;20242;-79
2021/07/26 04:16:16;;;;;;;17.53;15.83;;;;;;;18.63;76.57;101061.00;3577432;40;20229;-78
2021/07/26 04:18:42;;;;;;;19.87;17.73;;;;;;;18.73;76.69;101061.75;3589437;40;20229;-78
2021/07/26 04:21:08;;;;;;;19.70;17.73;;;;;;;18.82;76.38;101067.72;3583172;40;20632;-78
2021/07/26 04:23:34;;;;;;;16.50;15.00;;;;;;;18.79;76.50;101065.13;3590306;40;20237;-78
2021/07/26 04:25:59;;;;;;;17.00;15.40;;;;;;;18.81;76.66;101052.16;3589159;40;20226;-78
2021/07/26 04:28:24;;;;;;;17.57;15.87;;;;;;;18.83;77.01;101059.03;3581380;40;20475;-78
2021/07/26 04:30:49;;;;;;;19.40;17.47;;;;;;;18.84;76.71;101054.72;3591867;40;20454;-78
2021/07/26 04:33:15;;;;;;;20.87;18.77;;;;;;;18.91;77.04;101048.56;3589776;40;20234;-78
2021/07/26 04:35:40;;;;;;;20.57;18.63;;;;;;;18.95;76.90;101051.13;3586407;40;20348;-78
2021/07/26 04:38:05;;;;;;;20.70;18.73;;;;;;;18.97;77.00;101043.34;3582317;40;20233;-78
2021/07/26 04:40:31;;;;;;;16.50;14.80;;;;;;;19.05;76.52;101042.34;3583044;40;20232;-78
2021/07/26 04:42:56;;;;;;;20.87;18.23;;;;;;;19.19;76.42;101044.78;3592819;40;20755;-78
2021/07/26 04:45:21;;;;;;;22.67;20.37;;;;;;;19.23;76.69;101036.09;3592243;40;20232;-78
2021/07/26 04:47:46;;;;;;;22.23;19.93;;;;;;;19.27;76.53;101043.84;3573514;40;20235;-79
2021/07/26 04:50:12;;;;;;;17.30;15.63;;;;;;;19.30;76.76;101037.75;3587525;40;20258;-78
2021/07/26 04:52:37;;;;;;;17.17;15.60;;;;;;;19.39;76.59;101033.28;3578726;40;20234;-78
2021/07/26 04:55:04;;;;;;;22.37;20.17;;;;;;;19.59;76.29;101043.41;3581201;40;20234;-79
2021/07/26 04:57:29;;;;;;;22.87;20.73;;;;;;;19.78;75.63;101037.94;3572699;40;20238;-79
2021/07/26 04:59:54;;;;;;;24.40;22.00;;;;;;;19.99;75.77;101044.56;3577119;40;20295;-78
2021/07/26 05:02:19;;;;;;;22.23;20.03;;;;;;;20.04;75.29;101037.53;3581797;40;20229;-79
2021/07/26 05:04:45;;;;;;;23.63;21.33;;;;;;;20.12;75.26;101038.28;3582621;40;20225;-78
2021/07/26 05:07:10;;;;;;;23.90;21.50;;;;;;;20.15;75.19;101040.84;3587560;40;20230;-79
2021/07/26 05:09:37;;;;;;;26.97;24.37;;;;;;;20.52;73.64;101037.59;3573423;40;20836;-79
2021/07/26 05:12:04;;;;;;;26.73;24.03;;;;;;;20.59;73.43;101033.97;3585803;40;20512;-79
2021/07/26 05:14:29;;;;;;;26.27;23.67;;;;;;;21.17;71.48;101036.34;3591758;40;20577;-79
2021/07/26 05:16:55;;;;;;;26.07;23.57;;;;;;;21.26;71.04;101029.19;3582294;40;20217;-79
2021/07/26 05:19:20;;;;;;;22.60;20.40;;;;;;;21.12;71.38;101040.78;3576802;40;20585;-79
2021/07/26 05:21:45;;;;;;;18.77;16.97;;;;;;;20.88;71.78;101036.91;3591170;40;20626;-79
2021/07/26 05:24:11;;;;;;;26.30;23.80;;;;;;;21.09;71.91;101044.31;3591182;40;20252;-79
2021/07/26 05:26:36;;;;;;;27.63;24.83;;;;;;;21.40;69.98;101040.19;3587262;40;20232;-79
2021/07/26 05:29:01;;;;;;;27.27;24.50;;;;;;;21.21;71.25;101049.28;3573473;40;20226;-79
2021/07/26 05:31:26;;;;;;;27.73;25.03;;;;;;;21.26;71.44;101041.38;3587749;40;20225;-78
2021/07/26 05:33:52;;;;;;;28.13;25.43;;;;;;;21.41;71.55;101043.63;3591485;40;20233;-78
2021/07/26 05:36:17;;;;;;;28.17;25.57;;;;;;;21.48;70.98;101053.06;3582540;40;20225;-79
2021/07/26 05:38:42;;;;;;;27.33;24.63;;;;;;;21.51;71.07;101051.22;3591891;40;20593;-78
2021/07/26 05:41:08;;;;;;;22.87;20.67;;;;;;;21.39;70.21;101054.13;3581644;40;20229;-79
2021/07/26 05:43:34;;;;;;;26.93;24.23;;;;;;;21.63;69.61;101050.97;3572585;40;20234;-78
2021/07/26 05:46:00;;;;;;;25.23;22.47;;;;;;;21.56;70.37;101061.56;3581614;40;20231;-79
2021/07/26 05:48:25;;;;;;;27.20;24.33;;;;;;;21.44;70.91;101062.69;3572315;40;20214;-79
2021/07/26 05:50:51;;;;;;;24.70;22.30;;;;;;;21.44;71.30;101061.81;3581027;40;20233;-79
2021/07/26 05:53:16;;;;;;;24.73;22.30;;;;;;;21.44;72.11;101062.69;3581159;40;20234;-79
2021/07/26 05:55:41;;;;;;;21.43;19.20;;;;;;;21.53;71.03;101061.63;3580879;40;20228;-79
2021/07/26 05:58:06;;;;;;;24.20;21.70;;;;;;;21.57;70.87;101056.34;3581889;40;20222;-79
2021/07/26 06:00:42;;;;;;;22.67;20.37;;;;;;;21.51;71.48;101047.78;3572279;40;20315;-79
2021/07/26 06:03:08;;;;;;;24.53;22.23;;;;;;;21.88;69.45;101040.88;3573664;40;20641;-79
2021/07/26 06:05:33;;;;;;;25.25;22.85;;;;;;;22.04;68.33;101037.88;3581058;40;20314;-79
2021/07/26 06:07:58;;;;;;;25.23;22.80;;;;;;;22.25;68.34;101037.31;3580454;40;20286;-80
2021/07/26 06:10:23;;;;;;;26.13;23.67;;;;;;;22.34;68.20;101031.03;3580893;40;20246;-79
2021/07/26 06:12:52;;;;;;;25.00;22.60;;;;;;;22.34;68.32;101031.03;3574545;40;20256;-80
2021/07/26 06:15:17;;;;;;;22.60;20.40;;;;;;;22.34;68.27;101028.41;3591221;40;20614;-79
2021/07/26 06:17:42;;;;;;;20.53;18.53;;;;;;;22.23;68.98;101019.16;3591744;40;20229;-79
2021/07/26 06:20:08;;;;;;;18.37;16.57;;;;;;;22.23;68.74;101020.84;3591075;40;20231;-79
2021/07/26 06:22:33;;;;;;;22.20;19.90;;;;;;;22.39;67.98;101026.53;3581825;40;20302;-79
2021/07/26 06:24:59;;;;;;;23.67;21.30;;;;;;;22.54;67.60;101025.31;3591525;40;20218;-80
2021/07/26 06:27:24;;;;;;;20.17;18.23;;;;;;;22.71;66.67;101026.59;3581822;40;20248;-78
2021/07/26 06:29:52;;;;;;;24.03;21.63;;;;;;;22.98;65.88;101030.19;3592079;40;20601;-79
2021/07/26 06:32:18;;;;;;;22.60;20.40;;;;;;;22.96;65.63;101026.72;3591403;40;20225;-79
2021/07/26 06:34:43;;;;;;;22.77;20.30;;;;;;;22.96;65.95;101029.34;3581577;40;20335;-79
2021/07/26 06:37:09;;;;;;;18.60;16.87;;;;;;;23.03;66.73;101028.28;3581919;40;20229;-79
2021/07/26 06:39:34;;;;;;;19.33;17.43;;;;;;;23.17;66.72;101018.28;3581720;40;20288;-79
2021/07/26 06:42:00;;;;;;;22.20;19.90;;;;;;;23.38;65.18;101025.56;3585142;40;20236;-79
2021/07/26 06:44:27;;;;;;;18.60;16.90;;;;;;;23.58;64.78;101028.41;3582913;40;20234;-79
2021/07/26 06:46:53;;;;;;;20.50;18.53;;;;;;;23.74;64.01;101038.34;3581830;40;20234;-79
2021/07/26 06:49:18;;;;;;;18.42;16.70;;;;;;;23.89;63.45;101032.63;3581606;40;20224;-79
2021/07/26 06:51:43;;;;;;;20.95;18.95;;;;;;;24.30;61.52;101034.78;3576494;40;20217;-79
2021/07/26 06:54:08;;;;;;;18.90;17.00;;;;;;;24.34;61.38;101036.38;3591098;40;20562;-80
2021/07/26 06:56:34;;;;;;;20.20;18.20;;;;;;;24.45;61.95;101041.28;3591225;40;20310;-79
2021/07/26 06:58:59;;;;;;;19.90;17.90;;;;;;;24.58;61.05;101042.56;3591198;40;20225;-79
2021/07/26 07:01:24;;;;;;;20.77;18.58;;;;;;;24.72;60.61;101038.56;3591296;40;20236;-79
2021/07/26 07:03:50;;;;;;;19.02;17.27;;;;;;;24.83;61.35;101046.06;3591764;40;20491;-79
2021/07/26 07:06:16;;;;;;;18.80;17.00;;;;;;;25.11;60.34;101034.53;3589242;40;20221;-79
2021/07/26 07:08:43;;;;;;;19.10;17.05;;;;;;;25.25;60.86;101034.00;3591502;40;20232;-79
2021/07/26 07:11:13;;;;;;;19.05;17.23;;;;;;;25.60;58.09;101034.38;3591838;40;20800;-80
2021/07/26 07:13:40;;;;;;;17.33;15.70;;;;;;;25.69;57.05;101041.91;3590856;40;20245;-79
2021/07/26 07:16:17;;;;;;;18.08;16.35;;;;;;;25.83;56.70;101039.59;3591520;40;20230;-79
2021/07/26 07:18:44;;;;;;;17.80;16.08;;;;;;;26.01;55.64;101033.63;3590717;40;20257;-80
2021/07/26 07:21:16;;;;;;;16.27;14.63;;;;;;;26.04;54.09;101030.03;3590828;40;20627;-79
2021/07/26 07:23:41;;;;;;;14.63;13.18;;;;;;;25.76;54.69;101034.63;3581945;40;20642;-79
2021/07/26 07:26:06;;;;;;;13.80;12.40;;;;;;;25.71;54.90;101041.84;3585458;40;20234;-79
2021/07/26 07:28:32;;;;;;;14.52;13.23;;;;;;;25.51;55.51;101050.47;3572744;40;20236;-80
2021/07/26 07:30:57;;;;;;;14.32;12.93;;;;;;;25.40;56.04;101052.69;3572376;40;20241;-80
2021/07/26 07:33:22;;;;;;;13.88;12.48;;;;;;;25.04;57.62;101064.47;3582128;40;20242;-79
2021/07/26 07:35:47;;;;;;;14.68;13.18;;;;;;;25.27;57.40;101069.78;3581414;40;20320;-79
2021/07/26 07:38:13;;;;;;;15.88;14.35;;;;;;;25.59;55.95;101066.78;3580978;40;20218;-79
2021/07/26 07:40:38;;;;;;;15.18;13.30;;;;;;;25.09;57.54;101080.91;3575899;40;20217;-79
2021/07/26 07:43:05;;;;;;;14.68;13.27;;;;;;;25.19;56.98;101086.69;3581054;40;20232;-79
2021/07/26 07:45:31;;;;;;;14.57;13.25;;;;;;;25.05;57.08;101081.91;3590273;40;20261;-79
2021/07/26 07:47:56;;;;;;;15.20;13.30;;;;;;;24.90;58.06;101079.84;3579693;40;20280;-80
2021/07/26 07:50:22;;;;;;;14.90;13.52;;;;;;;24.65;59.14;101084.25;3591287;40;20229;-78
2021/07/26 07:52:47;;;;;;;15.07;13.50;;;;;;;24.82;58.98;101081.88;3579595;40;20604;-79
2021/07/26 07:55:12;;;;;;;16.33;14.68;;;;;;;24.72;59.38;101082.28;3581795;40;20413;-78
2021/07/26 07:57:38;;;;;;;17.33;15.50;;;;;;;24.39;60.36;101088.59;3591689;40;20230;-79
2021/07/26 08:00:10;;;;;;;17.02;15.23;;;;;;;24.19;61.90;101089.28;3589244;40;20489;-78
2021/07/26 08:02:35;;;;;;;16.67;14.88;;;;;;;23.95;62.89;101090.06;3591072;40;20225;-79
2021/07/26 08:05:01;;;;;;;14.75;13.25;;;;;;;23.78;64.12;101097.53;3591282;40;20225;-78
2021/07/26 08:07:26;;;;;;;17.38;15.27;;;;;;;23.76;64.33;101094.09;3591789;40;20623;-77
2021/07/26 08:09:51;;;;;;;18.85;14.77;;;;;;;23.84;64.64;101099.94;3591221;40;20248;-77
2021/07/26 08:12:18;;;;;;;17.85;16.13;;;;;;;23.91;64.87;101100.66;3593667;40;20221;-76
2021/07/26 08:14:43;;;;;;;15.50;14.00;;;;;;;23.79;65.86;101107.09;3589406;40;20237;-78
2021/07/26 08:17:09;;;;;;;16.23;14.65;;;;;;;23.86;65.33;101103.38;3582144;40;20608;-79
2021/07/26 08:19:34;;;;;;;15.70;14.05;;;;;;;23.32;66.50;101106.75;3581412;40;20210;-79
2021/07/26 08:21:59;;;;;;;14.50;13.13;;;;;;;23.43;65.85;101107.31;3589737;40;20221;-79
2021/07/26 08:24:24;;;;;;;13.40;11.77;;;;;;;23.25;65.93;101105.22;3582062;40;20256;-80
2021/07/26 08:26:49;;;;;;;13.00;11.20;;;;;;;22.97;67.01;101102.47;3586799;40;20526;-79
2021/07/26 08:29:15;;;;;;;12.57;11.00;;;;;;;22.72;68.82;101114.47;3572297;40;20218;-79
2021/07/26 08:31:40;;;;;;;12.73;10.53;;;;;;;22.62;68.45;101105.16;3582164;40;20608;-78
2021/07/26 08:34:05;;;;;;;11.53;10.43;;;;;;;22.52;68.84;101111.53;3581717;40;20255;-79
2021/07/26 08:36:31;;;;;;;12.67;10.23;;;;;;;22.39;68.50;101110.06;3581839;40;20230;-78
2021/07/26 08:38:56;;;;;;;11.73;9.03;;;;;;;22.09;69.08;101111.66;3588370;40;20466;-79
2021/07/26 08:41:21;;;;;;;12.70;8.67;;;;;;;21.95;69.77;101118.94;3581597;40;20241;-79
2021/07/26 08:43:47;;;;;;;11.67;10.03;;;;;;;21.72;70.99;101121.19;3591550;40;20327;-79
2021/07/26 08:46:17;;;;;;;12.07;10.73;;;;;;;21.79;71.08;101120.16;3580286;40;20242;-78
2021/07/26 08:48:44;;;;;;;11.30;9.73;;;;;;;21.76;70.88;101121.97;3581237;40;20293;-79
2021/07/26 08:51:12;;;;;;;13.40;10.40;;;;;;;21.61;71.83;101115.31;3583499;40;20230;-79
2021/07/26 08:53:38;;;;;;;9.77;8.63;;;;;;;21.55;71.72;101125.00;3582182;40;20280;-79
2021/07/26 08:56:06;;;;;;;10.90;9.80;;;;;;;21.45;72.20;101133.91;3591986;40;20228;-79
2021/07/26 08:58:31;;;;;;;11.15;9.50;;;;;;;21.57;72.09;101141.50;3591361;40;20235;-78
2021/07/26 09:00:56;;;;;;;8.80;7.90;;;;;;;21.26;73.08;101146.47;3585053;40;20237;-79
2021/07/26 09:03:22;;;;;;;10.20;9.20;;;;;;;21.40;72.46;101146.16;3586002;40;20720;-78
2021/07/26 09:05:47;;;;;;;10.10;7.53;;;;;;;21.32;73.10;101153.28;3581017;40;20221;-78
2021/07/26 09:08:12;;;;;;;13.07;9.57;;;;;;;21.59;71.65;101157.94;3591280;40;20225;-79
2021/07/26 09:10:42;;;;;;;12.17;9.17;;;;;;;21.49;71.57;101148.59;3591471;40;20247;-79
2021/07/26 09:13:11;;;;;;;10.17;9.00;;;;;;;21.43;72.19;101144.34;3591301;40;20268;-78
2021/07/26 09:15:37;;;;;;;10.63;9.53;;;;;;;21.37;72.58;101138.44;3581930;40;20232;-78
2021/07/26 09:18:03;;;;;;;10.47;8.73;;;;;;;21.36;71.78;101139.31;3590701;40;20233;-79
2021/07/26 09:20:30;;;;;;;9.17;7.67;;;;;;;21.14;72.21;101161.47;3590952;40;20708;-79
2021/07/26 09:22:58;;;;;;;8.77;7.87;;;;;;;21.18;72.72;101176.13;3590019;40;20249;-79
2021/07/26 09:25:30;;;;;;;10.73;8.90;;;;;;;21.05;73.50;101182.47;3591801;40;20240;-78
2021/07/26 09:28:05;;;;;;;7.47;6.67;;;;;;;20.75;74.17;101183.81;3581320;40;20225;-79
2021/07/26 09:30:32;;;;;;;8.50;6.93;;;;;;;20.60;74.57;101185.81;3590556;40;20229;-78
2021/07/26 09:32:58;;;;;;;6.77;6.07;;;;;;;20.55;74.83;101185.88;3588210;40;20254;-78
2021/07/26 09:35:25;;;;;;;7.30;5.90;;;;;;;20.62;75.05;101178.81;3585903;40;20264;-78
2021/07/26 09:38:01;;;;;;;8.23;6.80;;;;;;;20.50;75.51;101187.69;3576429;40;20562;-79
2021/07/26 09:40:33;;;;;;;9.77;8.33;;;;;;;20.83;74.45;101191.50;3581694;40;20282;-78
2021/07/26 09:43:19;;;;;;;7.27;6.53;;;;;;;20.85;73.77;101189.72;3591158;40;20642;-78
2021/07/26 09:45:46;;;;;;;8.77;7.57;;;;;;;20.83;74.00;101196.72;3585170;40;20245;-78
2021/07/26 09:48:14;;;;;;;10.43;7.37;;;;;;;20.91;73.22;101200.94;3581157;40;20237;-79
2021/07/26 09:50:41;;;;;;;6.33;5.40;;;;;;;20.69;74.41;101209.09;3581603;40;20653;-78
2021/07/26 09:53:08;;;;;;;7.37;6.47;;;;;;;20.60;74.88;101207.47;3585334;40;20318;-79
2021/07/26 09:55:34;;;;;;;7.10;6.37;;;;;;;20.41;75.53;101220.81;3586428;40;20242;-79
2021/07/26 09:58:04;;;;;;;8.37;7.27;;;;;;;20.55;75.41;101224.06;3574470;40;20222;-78
2021/07/26 10:00:30;;;;;;;9.73;7.80;;;;;;;20.60;74.92;101210.06;3579462;40;20225;-78
2021/07/26 10:02:55;;;;;;;6.50;5.80;;;;;;;20.44;75.91;101205.13;3587384;40;21757;-79
2021/07/26 10:05:23;;;;;;;7.20;6.37;;;;;;;20.55;75.36;101205.84;3572021;40;20229;-79
2021/07/26 10:07:52;;;;;;;7.97;6.40;;;;;;;20.59;75.13;101200.56;3583932;40;20692;-79
2021/07/26 10:10:17;;;;;;;7.47;6.37;;;;;;;20.88;73.91;101197.47;3591407;40;20241;-78
2021/07/26 10:12:44;;;;;;;9.07;6.70;;;;;;;21.06;73.51;101192.00;3581781;40;20224;-78
2021/07/26 10:15:10;;;;;;;8.93;6.87;;;;;;;21.38;72.92;101190.50;3590784;40;20225;-78
2021/07/26 10:17:37;;;;;;;6.97;6.23;;;;;;;21.49;73.03;101183.34;3588809;40;20222;-78
2021/07/26 10:20:03;;;;;;;8.80;7.60;;;;;;;22.08;73.85;101192.56;3580934;40;20214;-79
2021/07/26 10:22:30;;;;;;;10.53;7.80;;;;;;;22.50;74.80;101186.41;3571995;40;20305;-78
2021/07/26 10:25:08;;;;;;;8.43;6.97;;;;;;;23.11;69.46;101178.75;3579452;40;20254;-78
2021/07/26 10:27:37;;;;;;;7.80;7.00;;;;;;;23.47;71.71;101169.94;3587686;40;20225;-78
2021/07/26 10:30:03;;;;;;;6.90;6.17;;;;;;;23.99;67.65;101159.69;3589887;40;20272;-78
2021/07/26 10:32:28;;;;;;;6.87;6.17;;;;;;;24.34;69.16;101156.84;3579766;40;20213;-79
2021/07/26 10:34:53;;;;;;;6.30;5.70;;;;;;;24.59;66.84;101167.41;3590698;40;20244;-79
2021/07/26 10:37:38;;;;;;;7.47;5.60;;;;;;;24.66;63.47;101164.56;3590118;40;20237;-79
2021/07/26 10:40:21;;;;;;;7.20;5.25;;;;;;;24.60;61.67;101164.75;3590793;40;20236;-78
2021/07/26 10:42:48;;;;;;;6.35;5.13;;;;;;;24.64;63.62;101155.03;3588473;40;20624;-78
2021/07/26 10:45:32;;;;;;;5.53;4.93;;;;;;;24.63;63.53;101143.69;3571368;40;20238;-78
2021/07/26 10:48:28;;;;;;;4.95;4.50;;;;;;;24.62;66.11;101147.22;3581728;40;20234;-79
2021/07/26 10:50:55;;;;;;;4.57;4.10;;;;;;;24.85;63.42;101134.19;3571660;40;20238;-78
2021/07/26 10:53:32;;;;;;;5.70;4.95;;;;;;;25.03;60.75;101133.56;3581151;40;20246;-79
2021/07/26 10:56:13;;;;;;;5.15;4.65;;;;;;;25.02;63.02;101126.63;3583409;40;20307;-77
2021/07/26 10:58:38;;;;;;;4.97;4.47;;;;;;;25.10;65.10;101127.19;3591174;40;20245;-78
2021/07/26 11:01:19;;;;;;;5.20;4.78;;;;;;;25.39;63.65;101123.53;3581928;40;20237;-79
2021/07/26 11:03:44;;;;;;;4.72;4.05;;;;;;;25.45;62.37;101128.56;3591650;40;20249;-79
2021/07/26 11:06:09;;;;;;;5.13;4.40;;;;;;;25.57;64.04;101128.97;3591437;40;20217;-79
2021/07/26 11:08:35;;;;;;;4.72;4.32;;;;;;;25.80;62.54;101117.59;3581710;40;20697;-78
2021/07/26 11:11:00;;;;;;;4.60;4.20;;;;;;;26.03;60.91;101113.22;3585320;40;20236;-79
2021/07/26 11:13:47;;;;;;;4.65;4.25;;;;;;;26.49;56.67;101112.19;3572481;40;20257;-79